createdAt,value
2017-06-11T00:00:30.706Z,12.96
2017-06-11T00:01:30.691Z,12.92
2017-06-11T00:02:25.775Z,12.90
2017-06-11T00:03:19.814Z,12.86
2017-06-11T00:04:07.994Z,12.84
2017-06-11T00:04:55.904Z,12.84
2017-06-11T00:05:43.884Z,12.82
2017-06-11T00:06:33.065Z,12.78
2017-06-11T00:07:21.185Z,12.74
2017-06-11T00:08:10.366Z,12.70
2017-06-11T00:09:05.113Z,12.67
2017-06-11T00:09:53.148Z,12.64
2017-06-11T00:10:47.281Z,12.66
2017-06-11T00:11:42.193Z,12.67
2017-06-11T00:12:36.317Z,12.66
2017-06-11T00:13:25.317Z,12.63
2017-06-11T00:14:13.378Z,12.60
2017-06-11T00:15:01.392Z,12.56
2017-06-11T00:15:50.474Z,12.52
2017-06-11T00:16:44.485Z,12.50
2017-06-11T00:17:50.786Z,12.46
2017-06-11T00:18:44.543Z,12.46
2017-06-11T00:19:44.562Z,12.46
2017-06-11T00:20:32.598Z,12.46
2017-06-11T00:21:33.663Z,12.46
2017-06-11T00:22:33.662Z,12.46
2017-06-11T00:23:33.712Z,12.53
2017-06-11T00:24:21.797Z,12.52
2017-06-11T00:25:15.787Z,12.52
2017-06-11T00:26:04.883Z,12.52
2017-06-11T00:26:52.952Z,12.55
2017-06-11T00:27:46.958Z,12.54
2017-06-11T00:28:34.985Z,12.52
2017-06-11T00:29:23.027Z,12.51
2017-06-11T00:30:11.097Z,12.47
2017-06-11T00:31:06.100Z,12.44
2017-06-11T00:32:00.178Z,12.38
2017-06-11T00:32:49.182Z,12.37
2017-06-11T00:33:37.223Z,12.33
2017-06-11T00:34:26.335Z,12.30
2017-06-11T00:35:14.395Z,12.26
2017-06-11T00:36:02.389Z,12.22
2017-06-11T00:36:50.405Z,12.18
2017-06-11T00:37:39.457Z,12.17
2017-06-11T00:38:27.499Z,12.14
2017-06-11T00:39:16.590Z,12.15
2017-06-11T00:40:04.610Z,12.11
2017-06-11T00:40:52.669Z,12.14
2017-06-11T00:41:41.693Z,12.12
2017-06-11T00:42:29.707Z,12.12
2017-06-11T00:43:18.012Z,12.10
2017-06-11T00:44:06.892Z,12.09
2017-06-11T00:44:55.886Z,12.04
2017-06-11T00:45:45.137Z,12.03
2017-06-11T00:46:32.946Z,12.00
2017-06-11T00:47:22.172Z,12.02
2017-06-11T00:48:10.307Z,12.01
2017-06-11T00:48:58.097Z,12.00
2017-06-11T00:49:46.126Z,11.98
2017-06-11T00:50:35.308Z,11.98
2017-06-11T00:51:23.209Z,11.97
2017-06-11T00:52:17.458Z,11.99
2017-06-11T00:53:05.304Z,11.98
2017-06-11T00:54:06.475Z,12.00
2017-06-11T00:55:00.551Z,12.04
2017-06-11T00:56:00.531Z,12.01
2017-06-11T00:56:55.630Z,11.99
2017-06-11T00:57:50.726Z,11.96
2017-06-11T00:58:38.560Z,11.94
2017-06-11T00:59:27.677Z,11.92
2017-06-11T01:00:15.592Z,11.91
2017-06-11T01:01:03.659Z,11.90
2017-06-11T01:01:51.691Z,11.88
2017-06-11T01:02:39.764Z,11.87
2017-06-11T01:03:28.786Z,11.85
2017-06-11T01:04:17.802Z,11.84
2017-06-11T01:05:05.918Z,11.88
2017-06-11T01:06:06.071Z,11.90
2017-06-11T01:07:05.991Z,11.92
2017-06-11T01:08:06.002Z,11.95
2017-06-11T01:09:06.998Z,11.97
2017-06-11T01:10:08.056Z,11.92
2017-06-11T01:11:08.069Z,11.92
2017-06-11T01:12:14.123Z,11.90
2017-06-11T01:13:09.172Z,11.88
2017-06-11T01:14:09.180Z,11.84
2017-06-11T01:15:04.211Z,11.84
2017-06-11T01:15:59.314Z,11.81
2017-06-11T01:17:00.551Z,11.81
2017-06-11T01:18:00.588Z,11.78
2017-06-11T01:19:00.389Z,11.78
2017-06-11T01:20:00.380Z,11.78
2017-06-11T01:21:01.422Z,11.78
2017-06-11T01:22:02.740Z,11.74
2017-06-11T01:22:56.516Z,11.72
2017-06-11T01:23:56.526Z,11.72
2017-06-11T01:24:51.605Z,11.71
2017-06-11T01:25:46.623Z,11.70
2017-06-11T01:26:46.995Z,11.70
2017-06-11T01:27:41.678Z,11.69
2017-06-11T01:28:36.903Z,11.66
2017-06-11T01:29:36.953Z,11.66
2017-06-11T01:30:32.030Z,11.66
2017-06-11T01:31:27.156Z,11.68
2017-06-11T01:32:27.921Z,11.68
2017-06-11T01:33:27.886Z,11.66
2017-06-11T01:34:27.942Z,11.65
2017-06-11T01:35:22.965Z,11.68
2017-06-11T01:36:16.984Z,11.68
2017-06-11T01:37:17.302Z,11.68
2017-06-11T01:38:12.615Z,11.68
2017-06-11T01:39:12.166Z,11.70
2017-06-11T01:40:12.107Z,11.70
2017-06-11T01:41:18.185Z,11.72
2017-06-11T01:42:13.428Z,11.75
2017-06-11T01:43:13.262Z,11.78
2017-06-11T01:44:08.589Z,11.78
2017-06-11T01:45:03.531Z,11.80
2017-06-11T01:46:03.627Z,11.82
2017-06-11T01:46:58.642Z,11.86
2017-06-11T01:47:53.463Z,11.85
2017-06-11T01:48:53.610Z,11.87
2017-06-11T01:49:48.470Z,11.93
2017-06-11T01:50:43.502Z,11.94
2017-06-11T01:51:44.805Z,11.96
2017-06-11T01:52:50.594Z,11.96
2017-06-11T01:53:50.648Z,11.98
2017-06-11T01:54:45.800Z,11.98
2017-06-11T01:55:40.715Z,12.01
2017-06-11T01:56:41.977Z,12.06
2017-06-11T01:57:41.783Z,12.10
2017-06-11T01:58:41.798Z,12.14
2017-06-11T01:59:41.866Z,12.17
2017-06-11T02:00:42.905Z,12.18
2017-06-11T02:01:44.073Z,12.22
2017-06-11T02:02:37.954Z,12.23
2017-06-11T02:03:37.978Z,12.27
2017-06-11T02:04:33.022Z,12.27
2017-06-11T02:05:28.247Z,12.24
2017-06-11T02:06:28.188Z,12.22
2017-06-11T02:07:23.560Z,12.22
2017-06-11T02:08:18.294Z,12.20
2017-06-11T02:09:18.444Z,12.20
2017-06-11T02:10:13.227Z,12.20
2017-06-11T02:11:08.415Z,12.21
2017-06-11T02:12:09.562Z,12.18
2017-06-11T02:13:09.365Z,12.19
2017-06-11T02:14:09.386Z,12.19
2017-06-11T02:15:04.403Z,12.11
2017-06-11T02:16:04.576Z,12.07
2017-06-11T02:17:04.780Z,12.04
2017-06-11T02:18:04.504Z,12.02
2017-06-11T02:19:04.583Z,11.98
2017-06-11T02:19:58.566Z,11.96
2017-06-11T02:20:58.603Z,11.92
2017-06-11T02:21:58.684Z,11.89
2017-06-11T02:22:53.714Z,11.86
2017-06-11T02:23:47.884Z,11.80
2017-06-11T02:24:47.791Z,11.78
2017-06-11T02:25:42.891Z,11.78
2017-06-11T02:26:43.149Z,11.74
2017-06-11T02:27:36.954Z,11.72
2017-06-11T02:28:36.946Z,11.68
2017-06-11T02:29:32.056Z,11.65
2017-06-11T02:30:26.989Z,11.63
2017-06-11T02:31:27.082Z,11.62
2017-06-11T02:32:22.088Z,11.61
2017-06-11T02:33:17.103Z,11.62
2017-06-11T02:34:18.141Z,11.62
2017-06-11T02:35:18.213Z,11.61
2017-06-11T02:36:13.226Z,11.61
2017-06-11T02:37:13.228Z,11.60
2017-06-11T02:38:07.301Z,11.58
2017-06-11T02:39:07.306Z,11.57
2017-06-11T02:40:02.391Z,11.56
2017-06-11T02:40:57.491Z,11.53
2017-06-11T02:41:57.422Z,11.52
2017-06-11T02:42:52.483Z,11.50
2017-06-11T02:43:47.487Z,11.53
2017-06-11T02:44:48.569Z,11.56
2017-06-11T02:45:48.587Z,11.62
2017-06-11T02:46:48.617Z,11.61
2017-06-11T02:47:48.663Z,11.62
2017-06-11T02:48:49.664Z,11.60
2017-06-11T02:49:50.694Z,11.61
2017-06-11T02:50:44.769Z,11.62
2017-06-11T02:51:44.756Z,11.63
2017-06-11T02:52:39.813Z,11.62
2017-06-11T02:53:34.887Z,11.64
2017-06-11T02:54:28.887Z,11.63
2017-06-11T02:55:22.959Z,11.68
2017-06-11T02:56:10.988Z,11.66
2017-06-11T02:56:59.009Z,11.68
2017-06-11T02:57:48.158Z,11.67
2017-06-11T02:58:36.113Z,11.64
2017-06-11T02:59:24.185Z,11.64
2017-06-11T03:00:24.216Z,11.65
2017-06-11T03:01:12.299Z,11.62
2017-06-11T03:02:00.280Z,11.63
2017-06-11T03:02:49.374Z,11.62
2017-06-11T03:03:37.380Z,11.64
2017-06-11T03:04:25.431Z,11.62
2017-06-11T03:05:14.486Z,11.61
2017-06-11T03:06:02.504Z,11.58
2017-06-11T03:06:50.547Z,11.60
2017-06-11T03:07:39.581Z,11.62
2017-06-11T03:08:27.676Z,11.62
2017-06-11T03:09:15.730Z,11.62
2017-06-11T03:10:04.778Z,11.62
2017-06-11T03:10:52.803Z,11.66
2017-06-11T03:11:42.140Z,11.69
2017-06-11T03:12:29.895Z,11.66
2017-06-11T03:13:17.909Z,11.66
2017-06-11T03:14:07.008Z,11.66
2017-06-11T03:14:55.002Z,11.67
2017-06-11T03:15:43.078Z,11.64
2017-06-11T03:16:32.110Z,11.66
2017-06-11T03:17:20.164Z,11.68
2017-06-11T03:18:08.184Z,11.68
2017-06-11T03:18:57.222Z,11.66
2017-06-11T03:19:45.305Z,11.64
2017-06-11T03:20:34.309Z,11.72
2017-06-11T03:21:22.384Z,11.67
2017-06-11T03:22:10.421Z,11.64
2017-06-11T03:22:59.457Z,11.63
2017-06-11T03:23:47.478Z,11.64
2017-06-11T03:24:35.548Z,11.68
2017-06-11T03:25:24.584Z,11.64
2017-06-11T03:26:12.679Z,11.70
2017-06-11T03:27:01.684Z,11.65
2017-06-11T03:27:49.729Z,11.65
2017-06-11T03:28:37.791Z,11.66
2017-06-11T03:29:26.797Z,11.68
2017-06-11T03:30:14.881Z,11.72
2017-06-11T03:31:02.969Z,11.69
2017-06-11T03:31:50.977Z,11.68
2017-06-11T03:32:39.019Z,11.70
2017-06-11T03:33:27.029Z,11.65
2017-06-11T03:34:15.092Z,11.66
2017-06-11T03:35:03.107Z,11.70
2017-06-11T03:35:52.198Z,11.78
2017-06-11T03:36:40.550Z,11.80
2017-06-11T03:37:28.290Z,11.83
2017-06-11T03:38:16.300Z,11.82
2017-06-11T03:39:10.374Z,11.86
2017-06-11T03:39:58.407Z,11.89
2017-06-11T03:40:46.461Z,11.98
2017-06-11T03:41:34.506Z,12.00
2017-06-11T03:42:22.519Z,12.02
2017-06-11T03:43:11.565Z,12.04
2017-06-11T03:43:59.628Z,12.06
2017-06-11T03:44:47.659Z,12.08
2017-06-11T03:45:36.709Z,12.08
2017-06-11T03:46:24.772Z,12.16
2017-06-11T03:47:12.773Z,12.14
2017-06-11T03:48:01.992Z,12.16
2017-06-11T03:48:49.869Z,12.14
2017-06-11T03:49:37.914Z,12.18
2017-06-11T03:50:26.981Z,12.16
2017-06-11T03:51:15.012Z,12.26
2017-06-11T03:52:04.360Z,12.24
2017-06-11T03:52:52.089Z,12.22
2017-06-11T03:53:40.170Z,12.25
2017-06-11T03:54:29.204Z,12.35
2017-06-11T03:55:18.280Z,12.28
2017-06-11T03:56:12.293Z,12.39
2017-06-11T03:57:01.525Z,12.40
2017-06-11T03:57:49.532Z,12.42
2017-06-11T03:58:38.586Z,12.45
2017-06-11T03:59:26.564Z,12.49
2017-06-11T04:00:14.501Z,12.41
2017-06-11T04:01:03.804Z,12.44
2017-06-11T04:01:51.642Z,12.47
2017-06-11T04:02:39.622Z,12.44
2017-06-11T04:03:28.701Z,12.42
2017-06-11T04:04:16.762Z,12.47
2017-06-11T04:05:05.864Z,12.43
2017-06-11T04:05:53.993Z,12.48
2017-06-11T04:06:42.228Z,12.52
2017-06-11T04:07:29.971Z,12.52
2017-06-11T04:08:19.111Z,12.54
2017-06-11T04:09:06.984Z,12.50
2017-06-11T04:09:56.337Z,12.49
2017-06-11T04:10:44.367Z,12.52
2017-06-11T04:11:32.365Z,12.56
2017-06-11T04:12:21.426Z,12.60
2017-06-11T04:13:09.273Z,12.62
2017-06-11T04:13:58.543Z,12.64
2017-06-11T04:14:46.530Z,12.65
2017-06-11T04:15:34.607Z,12.66
2017-06-11T04:16:23.663Z,12.72
2017-06-11T04:17:11.492Z,12.74
2017-06-11T04:17:59.759Z,12.80
2017-06-11T04:18:48.799Z,12.84
2017-06-11T04:19:36.877Z,12.94
2017-06-11T04:20:25.912Z,12.93
2017-06-11T04:21:13.920Z,12.98
2017-06-11T04:22:02.117Z,13.08
2017-06-11T04:22:50.135Z,13.18
2017-06-11T04:23:39.088Z,13.30
2017-06-11T04:24:27.178Z,13.38
2017-06-11T04:25:16.207Z,13.49
2017-06-11T04:26:04.216Z,13.57
2017-06-11T04:26:52.233Z,13.72
2017-06-11T04:27:41.136Z,13.93
2017-06-11T04:28:29.137Z,14.17
2017-06-11T04:29:17.200Z,14.40
2017-06-11T04:30:06.314Z,14.76
2017-06-11T04:30:54.432Z,15.16
2017-06-11T04:31:48.412Z,15.76
2017-06-11T04:32:36.629Z,16.50
2017-06-11T04:33:24.677Z,17.28
2017-06-11T04:34:13.738Z,18.04
2017-06-11T04:35:07.780Z,18.52
2017-06-11T04:36:01.834Z,18.94
2017-06-11T04:36:49.822Z,19.02
2017-06-11T04:37:49.853Z,18.90
2017-06-11T04:38:38.079Z,19.02
2017-06-11T04:39:26.008Z,19.28
2017-06-11T04:40:14.040Z,19.38
2017-06-11T04:41:08.052Z,19.35
2017-06-11T04:41:55.934Z,19.68
2017-06-11T04:42:44.906Z,20.04
2017-06-11T04:43:34.104Z,20.04
2017-06-11T04:44:28.014Z,20.31
2017-06-11T04:45:28.019Z,20.52
2017-06-11T04:46:16.205Z,20.70
2017-06-11T04:47:05.145Z,20.69
2017-06-11T04:48:05.477Z,20.52
2017-06-11T04:48:53.535Z,20.42
2017-06-11T04:49:47.864Z,20.08
2017-06-11T04:50:36.552Z,19.82
2017-06-11T04:51:24.636Z,19.57
2017-06-11T04:52:18.474Z,19.30
2017-06-11T04:53:06.583Z,19.06
2017-06-11T04:54:00.503Z,18.75
2017-06-11T04:54:54.678Z,18.66
2017-06-11T04:55:42.847Z,18.36
2017-06-11T04:56:36.855Z,18.27
2017-06-11T04:57:25.900Z,18.18
2017-06-11T04:58:14.956Z,18.13
2017-06-11T04:59:02.974Z,17.94
2017-06-11T04:59:51.083Z,17.93
2017-06-11T05:00:39.119Z,17.81
2017-06-11T05:01:32.985Z,17.73
2017-06-11T05:02:21.994Z,17.70
2017-06-11T05:03:10.091Z,17.68
2017-06-11T05:03:59.136Z,17.75
2017-06-11T05:04:47.195Z,17.78
2017-06-11T05:05:36.243Z,17.89
2017-06-11T05:06:24.436Z,18.01
2017-06-11T05:07:12.334Z,18.14
2017-06-11T05:08:06.548Z,18.31
2017-06-11T05:09:00.594Z,18.94
2017-06-11T05:10:00.509Z,19.42
2017-06-11T05:10:54.513Z,20.58
2017-06-11T05:11:43.019Z,21.32
2017-06-11T05:12:31.614Z,21.72
2017-06-11T05:13:19.653Z,22.00
2017-06-11T05:14:20.901Z,22.52
2017-06-11T05:15:14.877Z,22.65
2017-06-11T05:16:04.026Z,22.61
2017-06-11T05:16:58.092Z,22.42
2017-06-11T05:17:53.153Z,22.24
2017-06-11T05:18:53.195Z,21.93
2017-06-11T05:19:48.262Z,21.74
2017-06-11T05:20:42.247Z,21.43
2017-06-11T05:21:37.343Z,21.19
2017-06-11T05:22:37.364Z,21.00
2017-06-11T05:23:38.420Z,20.93
2017-06-11T05:24:38.450Z,20.76
2017-06-11T05:25:33.482Z,20.66
2017-06-11T05:26:33.533Z,20.55
2017-06-11T05:27:28.610Z,20.36
2017-06-11T05:28:23.739Z,20.43
2017-06-11T05:29:12.717Z,20.43
2017-06-11T05:30:06.756Z,20.38
2017-06-11T05:31:00.857Z,20.30
2017-06-11T05:31:49.850Z,20.03
2017-06-11T05:32:38.944Z,19.96
2017-06-11T05:33:38.965Z,19.78
2017-06-11T05:34:28.008Z,19.81
2017-06-11T05:35:16.067Z,19.79
2017-06-11T05:36:05.135Z,19.73
2017-06-11T05:36:53.151Z,19.68
2017-06-11T05:37:41.249Z,19.76
2017-06-11T05:38:29.251Z,19.82
2017-06-11T05:39:23.342Z,19.83
2017-06-11T05:40:11.358Z,19.88
2017-06-11T05:41:00.447Z,19.92
2017-06-11T05:41:48.523Z,19.99
2017-06-11T05:42:37.512Z,20.04
2017-06-11T05:43:25.634Z,20.04
2017-06-11T05:44:13.636Z,20.08
2017-06-11T05:45:07.755Z,20.08
2017-06-11T05:46:01.744Z,20.10
2017-06-11T05:46:56.762Z,19.92
2017-06-11T05:47:51.835Z,19.88
2017-06-11T05:48:46.898Z,19.83
2017-06-11T05:49:34.925Z,19.89
2017-06-11T05:50:35.018Z,19.88
2017-06-11T05:51:29.014Z,19.72
2017-06-11T05:52:29.113Z,19.53
2017-06-11T05:53:30.139Z,19.46
2017-06-11T05:54:30.134Z,19.38
2017-06-11T05:55:24.265Z,19.27
2017-06-11T05:56:18.223Z,19.16
2017-06-11T05:57:07.336Z,19.01
2017-06-11T05:58:13.304Z,19.06
2017-06-11T05:59:01.408Z,19.12
2017-06-11T05:59:56.402Z,19.15
2017-06-11T06:00:57.621Z,19.05
2017-06-11T06:01:51.700Z,19.05
2017-06-11T06:02:39.659Z,19.07
2017-06-11T06:03:28.576Z,19.16
2017-06-11T06:04:23.681Z,19.18
2017-06-11T06:05:12.597Z,19.28
2017-06-11T06:06:06.811Z,19.30
2017-06-11T06:07:01.635Z,19.45
2017-06-11T06:08:01.952Z,19.45
2017-06-11T06:08:50.984Z,19.56
2017-06-11T06:09:39.045Z,19.51
2017-06-11T06:10:32.823Z,19.60
2017-06-11T06:11:21.078Z,19.72
2017-06-11T06:12:27.108Z,19.62
2017-06-11T06:13:22.062Z,19.60
2017-06-11T06:14:17.249Z,19.51
2017-06-11T06:15:17.222Z,19.56
2017-06-11T06:16:12.264Z,19.58
2017-06-11T06:17:07.298Z,19.50
2017-06-11T06:18:07.626Z,19.58
2017-06-11T06:19:07.494Z,19.60
2017-06-11T06:20:01.593Z,19.59
2017-06-11T06:21:02.319Z,19.62
2017-06-11T06:22:02.560Z,19.70
2017-06-11T06:22:57.564Z,19.80
2017-06-11T06:23:45.601Z,19.86
2017-06-11T06:24:39.744Z,19.93
2017-06-11T06:25:34.827Z,19.91
2017-06-11T06:26:23.612Z,20.00
2017-06-11T06:27:17.919Z,20.16
2017-06-11T06:28:11.800Z,20.22
2017-06-11T06:29:11.802Z,20.21
2017-06-11T06:30:05.801Z,20.25
2017-06-11T06:31:00.070Z,20.29
2017-06-11T06:31:54.077Z,20.30
2017-06-11T06:32:42.072Z,20.38
2017-06-11T06:33:36.257Z,20.52
2017-06-11T06:34:25.332Z,20.48
2017-06-11T06:35:13.383Z,20.59
2017-06-11T06:36:08.261Z,20.71
2017-06-11T06:37:02.412Z,20.75
2017-06-11T06:37:51.548Z,20.96
2017-06-11T06:38:51.577Z,21.12
2017-06-11T06:39:45.582Z,21.21
2017-06-11T06:40:34.654Z,21.31
2017-06-11T06:41:29.698Z,21.38
2017-06-11T06:42:29.752Z,21.54
2017-06-11T06:43:17.803Z,21.68
2017-06-11T06:44:11.777Z,21.72
2017-06-11T06:44:59.936Z,21.75
2017-06-11T06:45:54.973Z,21.92
2017-06-11T06:46:44.085Z,21.90
2017-06-11T06:47:39.029Z,21.80
2017-06-11T06:48:28.087Z,21.85
2017-06-11T06:49:22.191Z,21.80
2017-06-11T06:50:22.243Z,21.92
2017-06-11T06:51:22.172Z,22.06
2017-06-11T06:52:11.208Z,22.16
2017-06-11T06:53:12.217Z,22.40
2017-06-11T06:54:13.355Z,22.62
2017-06-11T06:55:13.477Z,22.64
2017-06-11T06:56:13.550Z,22.44
2017-06-11T06:57:02.345Z,22.20
2017-06-11T06:57:56.591Z,22.12
2017-06-11T06:58:56.596Z,22.20
2017-06-11T06:59:51.476Z,22.21
2017-06-11T07:00:45.598Z,22.22
2017-06-11T07:01:47.021Z,22.37
2017-06-11T07:02:47.802Z,22.64
2017-06-11T07:03:41.930Z,22.70
2017-06-11T07:04:36.015Z,22.87
2017-06-11T07:05:29.893Z,22.83
2017-06-11T07:06:23.878Z,23.00
2017-06-11T07:07:24.269Z,23.22
2017-06-11T07:08:13.200Z,23.42
2017-06-11T07:09:01.245Z,23.75
2017-06-11T07:10:01.317Z,24.50
2017-06-11T07:10:55.339Z,25.44
2017-06-11T07:11:44.521Z,26.32
2017-06-11T07:12:38.555Z,26.96
2017-06-11T07:13:26.646Z,27.82
2017-06-11T07:14:20.736Z,28.22
2017-06-11T07:15:09.781Z,27.85
2017-06-11T07:16:03.886Z,28.15
2017-06-11T07:16:52.964Z,27.47
2017-06-11T07:17:48.056Z,27.47
2017-06-11T07:18:42.099Z,27.49
2017-06-11T07:19:36.179Z,26.91
2017-06-11T07:20:30.244Z,26.56
2017-06-11T07:21:24.287Z,26.66
2017-06-11T07:22:19.440Z,26.54
2017-06-11T07:23:19.473Z,26.85
2017-06-11T07:24:19.524Z,26.35
2017-06-11T07:25:13.608Z,25.96
2017-06-11T07:26:07.689Z,25.86
2017-06-11T07:26:56.774Z,25.82
2017-06-11T07:27:51.843Z,25.65
2017-06-11T07:28:45.977Z,25.68
2017-06-11T07:29:40.978Z,25.45
2017-06-11T07:30:35.085Z,25.20
2017-06-11T07:31:24.150Z,25.42
2017-06-11T07:32:19.242Z,26.00
2017-06-11T07:33:08.307Z,26.08
2017-06-11T07:34:03.387Z,26.02
2017-06-11T07:34:52.474Z,26.04
2017-06-11T07:35:41.540Z,26.04
2017-06-11T07:36:30.610Z,26.09
2017-06-11T07:37:25.670Z,26.31
2017-06-11T07:38:20.752Z,26.69
2017-06-11T07:39:20.988Z,26.87
2017-06-11T07:40:09.050Z,27.01
2017-06-11T07:41:04.048Z,27.10
2017-06-11T07:42:05.080Z,27.02
2017-06-11T07:42:59.143Z,27.69
2017-06-11T07:43:59.294Z,28.21
2017-06-11T07:44:48.360Z,28.46
2017-06-11T07:45:36.428Z,28.79
2017-06-11T07:46:30.537Z,29.14
2017-06-11T07:47:24.578Z,29.55
2017-06-11T07:48:13.626Z,29.68
2017-06-11T07:49:08.742Z,29.82
2017-06-11T07:49:57.833Z,29.57
2017-06-11T07:50:52.876Z,30.09
2017-06-11T07:51:52.953Z,30.10
2017-06-11T07:52:41.060Z,30.18
2017-06-11T07:53:30.102Z,30.28
2017-06-11T07:54:18.187Z,30.21
2017-06-11T07:55:12.353Z,29.99
2017-06-11T07:56:06.361Z,29.43
2017-06-11T07:57:01.466Z,28.92
2017-06-11T07:57:49.522Z,28.76
2017-06-11T07:58:38.554Z,28.23
2017-06-11T07:59:33.694Z,27.83
2017-06-11T08:00:27.781Z,27.79
2017-06-11T08:01:22.827Z,28.01
2017-06-11T08:02:23.939Z,27.60
2017-06-11T08:03:19.008Z,27.49
2017-06-11T08:04:13.146Z,27.93
2017-06-11T08:05:08.229Z,28.31
2017-06-11T08:06:03.258Z,28.14
2017-06-11T08:06:57.340Z,27.94
2017-06-11T08:07:52.514Z,27.79
2017-06-11T08:08:41.504Z,28.00
2017-06-11T08:09:36.592Z,28.18
2017-06-11T08:10:30.684Z,28.62
2017-06-11T08:11:30.850Z,28.63
2017-06-11T08:12:24.867Z,28.84
2017-06-11T08:13:18.936Z,29.20
2017-06-11T08:14:12.991Z,29.60
2017-06-11T08:15:07.119Z,29.94
2017-06-11T08:16:07.153Z,29.86
2017-06-11T08:17:01.267Z,30.31
2017-06-11T08:17:55.300Z,30.87
2017-06-11T08:18:44.412Z,31.16
2017-06-11T08:19:38.497Z,31.30
2017-06-11T08:20:32.587Z,31.19
2017-06-11T08:21:27.664Z,31.22
2017-06-11T08:22:22.735Z,30.13
2017-06-11T08:23:16.815Z,29.93
2017-06-11T08:24:11.897Z,29.50
2017-06-11T08:25:12.002Z,29.25
2017-06-11T08:26:00.061Z,29.51
2017-06-11T08:26:55.111Z,29.89
2017-06-11T08:27:43.312Z,29.97
2017-06-11T08:28:37.300Z,29.99
2017-06-11T08:29:32.422Z,30.31
2017-06-11T08:30:26.542Z,30.93
2017-06-11T08:31:14.617Z,31.08
2017-06-11T08:32:14.649Z,31.86
2017-06-11T08:33:02.748Z,31.86
2017-06-11T08:33:56.863Z,31.39
2017-06-11T08:34:50.986Z,31.21
2017-06-11T08:35:46.065Z,30.99
2017-06-11T08:36:40.108Z,31.10
2017-06-11T08:37:40.145Z,31.12
2017-06-11T08:38:46.302Z,29.76
2017-06-11T08:39:40.361Z,29.37
2017-06-11T08:40:34.435Z,29.27
2017-06-11T08:41:29.539Z,29.66
2017-06-11T08:42:23.636Z,29.86
2017-06-11T08:43:18.702Z,29.50
2017-06-11T08:44:07.831Z,29.61
2017-06-11T08:45:01.856Z,29.83
2017-06-11T08:45:56.941Z,29.95
2017-06-11T08:46:57.042Z,29.86
2017-06-11T08:47:52.138Z,30.16
2017-06-11T08:48:47.242Z,30.33
2017-06-11T08:49:41.292Z,30.27
2017-06-11T08:50:35.402Z,29.34
2017-06-11T08:51:24.471Z,29.04
2017-06-11T08:52:19.556Z,29.24
2017-06-11T08:53:14.632Z,29.04
2017-06-11T08:54:08.719Z,29.29
2017-06-11T08:55:03.801Z,29.47
2017-06-11T08:56:03.883Z,29.78
2017-06-11T08:57:03.935Z,29.70
2017-06-11T08:57:58.074Z,29.57
2017-06-11T08:58:52.180Z,29.35
2017-06-11T08:59:46.252Z,29.64
2017-06-11T09:00:46.405Z,29.74
2017-06-11T09:01:35.432Z,30.15
2017-06-11T09:02:23.484Z,30.60
2017-06-11T09:03:17.544Z,30.94
2017-06-11T09:04:11.679Z,31.06
2017-06-11T09:05:06.787Z,31.12
2017-06-11T09:06:00.866Z,30.97
2017-06-11T09:06:54.939Z,30.92
2017-06-11T09:07:43.021Z,30.68
2017-06-11T09:08:37.108Z,30.26
2017-06-11T09:09:37.154Z,29.98
2017-06-11T09:10:37.225Z,29.67
2017-06-11T09:11:37.352Z,29.45
2017-06-11T09:12:32.451Z,29.21
2017-06-11T09:13:26.562Z,29.11
2017-06-11T09:14:26.625Z,28.83
2017-06-11T09:15:15.700Z,29.01
2017-06-11T09:16:04.784Z,29.00
2017-06-11T09:16:59.919Z,28.86
2017-06-11T09:17:48.994Z,28.88
2017-06-11T09:18:38.064Z,29.16
2017-06-11T09:19:33.124Z,28.96
2017-06-11T09:20:33.201Z,28.92
2017-06-11T09:21:33.282Z,29.00
2017-06-11T09:22:22.395Z,28.91
2017-06-11T09:23:16.441Z,29.12
2017-06-11T09:24:05.548Z,29.20
2017-06-11T09:25:00.608Z,28.97
2017-06-11T09:25:54.714Z,29.13
2017-06-11T09:26:43.813Z,29.12
2017-06-11T09:27:31.856Z,29.21
2017-06-11T09:28:25.970Z,29.33
2017-06-11T09:29:14.040Z,28.92
2017-06-11T09:30:08.113Z,28.91
2017-06-11T09:30:57.240Z,29.11
2017-06-11T09:31:52.293Z,29.29
2017-06-11T09:32:46.435Z,29.34
2017-06-11T09:33:40.422Z,29.50
2017-06-11T09:34:29.528Z,29.65
2017-06-11T09:35:18.629Z,29.55
2017-06-11T09:36:18.707Z,29.88
2017-06-11T09:37:12.787Z,29.88
2017-06-11T09:38:07.887Z,30.18
2017-06-11T09:39:02.983Z,30.57
2017-06-11T09:39:52.032Z,30.89
2017-06-11T09:40:41.163Z,30.85
2017-06-11T09:41:42.247Z,31.07
2017-06-11T09:42:31.338Z,31.26
2017-06-11T09:43:25.376Z,31.58
2017-06-11T09:44:20.464Z,31.88
2017-06-11T09:45:20.568Z,31.76
2017-06-11T09:46:15.623Z,31.89
2017-06-11T09:47:09.740Z,31.62
2017-06-11T09:47:58.815Z,31.38
2017-06-11T09:48:53.024Z,31.63
2017-06-11T09:49:41.007Z,31.48
2017-06-11T09:50:35.026Z,31.48
2017-06-11T09:51:35.162Z,31.40
2017-06-11T09:52:24.204Z,30.58
2017-06-11T09:53:12.310Z,30.53
2017-06-11T09:54:06.425Z,30.31
2017-06-11T09:54:55.469Z,30.22
2017-06-11T09:55:44.601Z,30.38
2017-06-11T09:56:38.655Z,30.47
2017-06-11T09:57:27.751Z,30.65
2017-06-11T09:58:21.801Z,30.06
2017-06-11T09:59:21.935Z,30.37
2017-06-11T10:00:16.016Z,30.43
2017-06-11T10:01:05.064Z,30.60
2017-06-11T10:01:54.182Z,30.72
2017-06-11T10:02:48.254Z,30.82
2017-06-11T10:03:42.351Z,31.21
2017-06-11T10:04:42.602Z,31.34
2017-06-11T10:05:37.560Z,31.29
2017-06-11T10:06:31.588Z,31.29
2017-06-11T10:07:25.679Z,31.21
2017-06-11T10:08:26.772Z,31.22
2017-06-11T10:09:15.877Z,31.01
2017-06-11T10:10:10.288Z,30.96
2017-06-11T10:11:04.033Z,31.26
2017-06-11T10:11:53.176Z,31.55
2017-06-11T10:12:42.229Z,31.55
2017-06-11T10:13:31.317Z,31.57
2017-06-11T10:14:25.380Z,31.51
2017-06-11T10:15:20.479Z,30.62
2017-06-11T10:16:20.543Z,30.68
2017-06-11T10:17:09.660Z,30.86
2017-06-11T10:18:03.750Z,30.80
2017-06-11T10:18:51.815Z,30.98
2017-06-11T10:19:51.927Z,31.21
2017-06-11T10:20:47.042Z,31.29
2017-06-11T10:21:36.031Z,31.34
2017-06-11T10:22:30.106Z,31.45
2017-06-11T10:23:24.228Z,31.40
2017-06-11T10:24:18.308Z,31.59
2017-06-11T10:25:07.383Z,31.50
2017-06-11T10:26:01.532Z,31.64
2017-06-11T10:26:50.611Z,31.81
2017-06-11T10:27:44.655Z,31.58
2017-06-11T10:28:32.743Z,31.57
2017-06-11T10:29:26.813Z,31.38
2017-06-11T10:30:15.952Z,31.15
2017-06-11T10:31:05.020Z,31.03
2017-06-11T10:31:59.093Z,30.99
2017-06-11T10:32:53.192Z,30.93
2017-06-11T10:33:47.280Z,30.84
2017-06-11T10:34:36.361Z,30.89
2017-06-11T10:35:36.428Z,30.93
2017-06-11T10:36:25.633Z,31.01
2017-06-11T10:37:19.559Z,31.27
2017-06-11T10:38:19.707Z,31.48
2017-06-11T10:39:08.815Z,31.76
2017-06-11T10:40:03.873Z,31.83
2017-06-11T10:41:03.971Z,31.94
2017-06-11T10:41:53.108Z,31.87
2017-06-11T10:42:41.140Z,31.77
2017-06-11T10:43:30.202Z,31.86
2017-06-11T10:44:24.312Z,31.76
2017-06-11T10:45:18.412Z,31.88
2017-06-11T10:46:07.474Z,32.11
2017-06-11T10:46:55.572Z,32.49
2017-06-11T10:47:44.679Z,32.57
2017-06-11T10:48:33.725Z,32.71
2017-06-11T10:49:27.805Z,32.80
2017-06-11T10:50:27.920Z,32.50
2017-06-11T10:51:22.911Z,32.61
2017-06-11T10:52:17.214Z,32.89
2017-06-11T10:53:05.091Z,33.10
2017-06-11T10:54:05.222Z,32.76
2017-06-11T10:54:59.309Z,31.78
2017-06-11T10:55:59.407Z,31.60
2017-06-11T10:56:53.497Z,30.86
2017-06-11T10:57:47.599Z,30.84
2017-06-11T10:58:41.651Z,30.58
2017-06-11T10:59:35.736Z,30.40
2017-06-11T11:00:29.843Z,30.36
2017-06-11T11:01:30.895Z,30.11
2017-06-11T11:02:24.995Z,30.08
2017-06-11T11:03:25.072Z,30.11
2017-06-11T11:04:20.138Z,30.38
2017-06-11T11:05:14.242Z,30.70
2017-06-11T11:06:08.347Z,31.12
2017-06-11T11:07:03.469Z,31.28
2017-06-11T11:07:57.500Z,31.44
2017-06-11T11:08:58.452Z,31.56
2017-06-11T11:09:57.659Z,31.55
2017-06-11T11:10:51.777Z,31.36
2017-06-11T11:11:51.928Z,31.57
2017-06-11T11:12:46.935Z,31.76
2017-06-11T11:13:36.043Z,31.81
2017-06-11T11:14:25.250Z,32.04
2017-06-11T11:15:25.234Z,32.36
2017-06-11T11:16:20.256Z,32.66
2017-06-11T11:17:14.371Z,33.16
2017-06-11T11:18:09.451Z,33.64
2017-06-11T11:19:03.562Z,33.78
2017-06-11T11:19:58.630Z,34.06
2017-06-11T11:20:47.684Z,34.48
2017-06-11T11:21:41.771Z,34.62
2017-06-11T11:22:29.850Z,34.52
2017-06-11T11:23:29.923Z,34.17
2017-06-11T11:24:25.082Z,34.56
2017-06-11T11:25:19.196Z,34.53